Time;durP1;ratioP1;P1;durP2;ratioP2;P2;SDS_P1;SDS_P2;PMS_P1;PMS_P2;Temp;Humidity;BMP_temperature;BMP_pressure;BME280_temperature;BME280_humidity;BME280_pressure;Samples;Min_cycle;Max_cycle;Signal;HPM_P1;HPM_P2
2021/06/25 00:00:59;;;;;;;37.35;24.13;;;;;;;16.45;80.28;100481.19;5017617;28;20053;-77
2021/06/25 00:03:26;;;;;;;33.88;24.48;;;;;;;16.52;80.63;100483.25;5017772;28;20092;-77
2021/06/25 00:05:52;;;;;;;33.60;24.58;;;;;;;16.48;80.24;100486.31;5017906;28;20050;-77
2021/06/25 00:08:19;;;;;;;31.75;25.52;;;;;;;16.48;80.46;100481.81;5017395;28;20074;-77
2021/06/25 00:10:46;;;;;;;33.20;25.50;;;;;;;16.50;80.49;100489.78;5017828;28;20388;-77
2021/06/25 00:13:12;;;;;;;39.78;25.42;;;;;;;16.48;80.17;100483.63;5017436;28;20054;-76
2021/06/25 00:15:39;;;;;;;32.03;25.15;;;;;;;16.43;80.00;100487.56;5017506;28;20052;-78
2021/06/25 00:18:06;;;;;;;33.53;25.83;;;;;;;16.49;79.82;100478.13;5017660;28;20053;-77
2021/06/25 00:20:33;;;;;;;38.25;25.95;;;;;;;16.49;79.67;100478.13;5030054;28;20083;-78
2021/06/25 00:23:03;;;;;;;33.53;26.02;;;;;;;16.50;79.86;100489.78;5036198;28;20060;-78
2021/06/25 00:25:31;;;;;;;33.80;25.23;;;;;;;16.43;79.80;100476.78;5037257;28;20045;-78
2021/06/25 00:27:58;;;;;;;37.00;27.52;;;;;;;16.52;79.34;100485.94;5036911;28;20049;-78
2021/06/25 00:30:25;;;;;;;40.50;27.77;;;;;;;16.43;79.43;100481.31;5037291;28;20324;-77
2021/06/25 00:32:52;;;;;;;36.20;27.63;;;;;;;16.42;79.85;100485.88;5037389;28;20054;-78
2021/06/25 00:35:19;;;;;;;39.05;27.73;;;;;;;16.35;79.99;100479.22;5037181;28;20084;-78
2021/06/25 00:37:47;;;;;;;42.97;28.33;;;;;;;16.31;80.25;100480.47;5036302;28;20358;-77
2021/06/25 00:40:15;;;;;;;37.60;28.70;;;;;;;16.26;80.06;100478.16;5036808;28;20045;-79
2021/06/25 00:42:41;;;;;;;41.60;30.20;;;;;;;16.17;80.01;100469.97;5035806;28;20057;-79
2021/06/25 00:45:13;;;;;;;37.40;31.35;;;;;;;16.11;80.61;100477.53;5036568;28;20115;-79
2021/06/25 00:47:43;;;;;;;39.53;30.90;;;;;;;16.04;81.00;100478.13;5037773;28;20065;-77
2021/06/25 00:50:12;;;;;;;36.97;31.00;;;;;;;16.08;80.70;100480.47;5037568;28;20071;-78
2021/06/25 00:52:38;;;;;;;40.90;29.88;;;;;;;15.99;80.42;100473.13;5037355;28;20398;-76
2021/06/25 00:55:06;;;;;;;40.08;30.30;;;;;;;15.95;81.19;100474.38;5037255;28;20049;-76
2021/06/25 00:57:33;;;;;;;38.20;30.10;;;;;;;15.86;80.90;100465.97;5037504;28;20057;-78
2021/06/25 01:00:00;;;;;;;40.72;30.80;;;;;;;15.87;81.23;100475.75;5037579;28;20145;-77
2021/06/25 01:02:26;;;;;;;43.92;31.77;;;;;;;15.79;81.40;100477.38;5036509;28;20057;-78
2021/06/25 01:04:53;;;;;;;39.53;31.63;;;;;;;15.84;81.71;100477.84;5037684;28;20111;-77
2021/06/25 01:07:20;;;;;;;38.35;29.95;;;;;;;15.83;81.27;100476.13;5035795;28;20443;-77
2021/06/25 01:09:47;;;;;;;42.42;31.65;;;;;;;15.78;81.69;100465.72;5036180;28;20061;-78
2021/06/25 01:12:14;;;;;;;42.38;30.73;;;;;;;15.74;81.83;100461.56;5036704;28;20406;-78
2021/06/25 01:14:40;;;;;;;39.05;29.83;;;;;;;15.71;81.62;100465.38;5036716;28;20118;-77
2021/06/25 01:17:07;;;;;;;41.50;29.95;;;;;;;15.70;81.83;100465.47;5036438;28;20061;-77
2021/06/25 01:19:34;;;;;;;38.83;30.25;;;;;;;15.59;82.05;100458.25;5032000;28;20100;-78
2021/06/25 01:22:00;;;;;;;40.38;29.55;;;;;;;15.58;82.04;100452.00;5015580;28;20436;-79
2021/06/25 01:24:27;;;;;;;39.58;31.50;;;;;;;15.51;81.86;100450.75;5016281;28;20527;-76
2021/06/25 01:26:54;;;;;;;37.10;31.48;;;;;;;15.50;82.47;100458.94;5031824;28;20053;-77
2021/06/25 01:29:20;;;;;;;37.30;30.63;;;;;;;15.48;81.84;100459.91;5016391;28;20046;-77
2021/06/25 01:31:47;;;;;;;40.80;31.15;;;;;;;15.37;82.74;100457.22;5016144;28;20447;-77
2021/06/25 01:34:14;;;;;;;40.42;31.15;;;;;;;15.39;82.47;100462.47;5016125;28;20046;-76
2021/06/25 01:36:41;;;;;;;38.78;30.38;;;;;;;15.32;82.58;100457.53;5016439;28;20053;-78
2021/06/25 01:39:07;;;;;;;38.17;30.63;;;;;;;15.16;83.56;100446.25;5016069;28;20053;-77
2021/06/25 01:41:39;;;;;;;39.88;32.40;;;;;;;15.10;83.91;100449.41;5014907;28;20529;-77
2021/06/25 01:44:06;;;;;;;39.95;31.88;;;;;;;15.04;84.43;100443.53;5014840;28;20509;-77
2021/06/25 01:46:34;;;;;;;38.10;31.65;;;;;;;15.04;84.57;100440.81;5014991;28;20045;-78
2021/06/25 01:49:01;;;;;;;39.05;31.30;;;;;;;14.92;85.10;100447.13;5030158;28;20088;-77
2021/06/25 01:51:27;;;;;;;42.60;31.77;;;;;;;14.82;85.65;100448.81;5014631;28;20053;-76
2021/06/25 01:53:54;;;;;;;39.35;31.45;;;;;;;14.83;85.72;100455.88;5015916;28;20057;-78
2021/06/25 01:56:21;;;;;;;39.40;31.85;;;;;;;14.88;85.32;100445.66;5015924;28;20394;-78
2021/06/25 01:58:48;;;;;;;42.22;32.15;;;;;;;14.66;86.27;100439.16;5015487;28;20045;-78
2021/06/25 02:01:17;;;;;;;42.97;32.33;;;;;;;14.59;86.91;100448.66;5015824;28;20054;-76
2021/06/25 02:03:46;;;;;;;40.60;31.00;;;;;;;14.53;87.03;100441.88;5014437;28;20432;-77
2021/06/25 02:06:14;;;;;;;41.42;32.35;;;;;;;14.40;87.30;100426.66;5015798;28;20391;-77
2021/06/25 02:08:41;;;;;;;46.00;33.47;;;;;;;14.43;87.58;100441.69;5015342;28;20393;-77
2021/06/25 02:11:10;;;;;;;42.83;32.50;;;;;;;14.44;87.71;100445.25;5015874;28;20104;-78
2021/06/25 02:13:37;;;;;;;39.85;33.08;;;;;;;14.48;87.35;100444.91;5015632;28;20103;-77
2021/06/25 02:16:05;;;;;;;45.03;33.53;;;;;;;14.47;87.26;100435.13;5015573;28;20057;-76
2021/06/25 02:18:31;;;;;;;40.22;32.83;;;;;;;14.45;87.45;100438.91;5015727;28;20139;-78
2021/06/25 02:20:58;;;;;;;40.95;33.92;;;;;;;14.48;87.19;100444.03;5031444;28;20049;-77
2021/06/25 02:23:25;;;;;;;44.42;32.65;;;;;;;14.44;87.16;100446.09;5035477;28;20053;-77
2021/06/25 02:25:51;;;;;;;44.42;33.88;;;;;;;14.43;87.00;100443.53;5036443;28;20049;-76
2021/06/25 02:28:18;;;;;;;43.33;32.92;;;;;;;14.35;87.28;100442.28;5037773;28;20053;-78
2021/06/25 02:30:45;;;;;;;41.13;32.47;;;;;;;14.26;87.48;100435.75;5038617;28;20053;-78
2021/06/25 02:33:12;;;;;;;44.22;33.70;;;;;;;14.29;87.67;100441.84;5037773;28;20059;-78
2021/06/25 02:35:39;;;;;;;46.30;33.65;;;;;;;14.17;87.91;100427.50;5039004;28;20057;-78
2021/06/25 02:38:05;;;;;;;39.80;33.03;;;;;;;14.20;88.20;100428.13;5035918;28;20485;-77
2021/06/25 02:40:32;;;;;;;42.70;34.30;;;;;;;14.19;88.17;100429.09;5033788;28;20049;-77
2021/06/25 02:43:00;;;;;;;43.78;32.83;;;;;;;14.13;88.31;100426.84;5035359;28;20346;-76
2021/06/25 02:45:27;;;;;;;45.30;34.72;;;;;;;14.09;88.64;100425.34;5034838;28;20401;-76
2021/06/25 02:47:54;;;;;;;41.38;34.60;;;;;;;14.14;88.75;100423.19;5034900;28;20107;-77
2021/06/25 02:50:21;;;;;;;45.17;35.38;;;;;;;14.10;89.00;100419.00;5034909;28;20347;-75
2021/06/25 02:52:47;;;;;;;46.67;35.75;;;;;;;13.99;89.47;100423.31;5035170;28;20115;-76
2021/06/25 02:55:14;;;;;;;45.00;35.75;;;;;;;13.94;89.61;100420.09;5035138;28;20131;-77
2021/06/25 02:57:41;;;;;;;46.50;35.78;;;;;;;13.87;89.50;100413.47;5035143;28;20057;-76
2021/06/25 03:00:11;;;;;;;45.13;36.05;;;;;;;13.92;89.50;100400.59;5036023;28;20045;-77
2021/06/25 03:02:38;;;;;;;50.58;37.20;;;;;;;13.91;89.79;100419.47;5037659;28;20554;-77
2021/06/25 03:05:07;;;;;;;49.88;37.25;;;;;;;13.89;89.41;100408.00;5038766;28;20107;-76
2021/06/25 03:07:34;;;;;;;48.10;36.22;;;;;;;13.83;89.24;100410.13;5039006;28;20123;-77
2021/06/25 03:10:01;;;;;;;52.38;38.88;;;;;;;13.85;88.99;100407.34;5037366;28;20119;-77
2021/06/25 03:12:27;;;;;;;51.65;38.72;;;;;;;13.84;89.23;100411.00;5038393;28;20439;-75
2021/06/25 03:14:54;;;;;;;48.83;38.42;;;;;;;13.76;89.56;100418.72;5038777;28;20103;-77
2021/06/25 03:17:21;;;;;;;49.47;37.80;;;;;;;13.71;89.55;100417.25;5038742;28;20057;-78
2021/06/25 03:19:48;;;;;;;54.63;38.63;;;;;;;13.69;89.75;100419.16;5032011;28;20050;-77
2021/06/25 03:22:15;;;;;;;54.65;40.03;;;;;;;13.70;89.88;100414.66;5033852;28;20128;-77
2021/06/25 03:24:42;;;;;;;52.42;39.40;;;;;;;13.67;89.70;100405.00;5018547;28;20398;-76
2021/06/25 03:27:08;;;;;;;51.63;38.72;;;;;;;13.61;90.11;100418.84;5017399;28;20108;-75
2021/06/25 03:29:35;;;;;;;53.67;40.13;;;;;;;13.61;89.84;100418.84;5018320;28;20065;-76
2021/06/25 03:32:02;;;;;;;51.72;38.88;;;;;;;13.60;90.01;100419.81;5018634;28;20050;-77
2021/06/25 03:34:29;;;;;;;55.60;39.78;;;;;;;13.58;90.09;100417.22;5018709;28;20057;-77
2021/06/25 03:36:56;;;;;;;55.17;40.17;;;;;;;13.52;90.26;100422.16;5018392;28;20054;-77
2021/06/25 03:39:22;;;;;;;55.65;39.75;;;;;;;13.48;90.06;100415.28;5018907;28;20050;-77
2021/06/25 03:41:49;;;;;;;60.97;40.95;;;;;;;13.51;90.32;100412.41;5019072;28;20181;-76
2021/06/25 03:44:16;;;;;;;55.67;40.03;;;;;;;13.48;90.46;100415.28;5018707;28;20061;-76
2021/06/25 03:46:42;;;;;;;55.58;39.97;;;;;;;13.52;90.08;100416.81;5018750;28;20054;-76
2021/06/25 03:49:09;;;;;;;54.72;39.13;;;;;;;13.51;90.13;100420.47;5018909;28;20077;-76
2021/06/25 03:51:36;;;;;;;56.60;41.05;;;;;;;13.52;90.05;100416.81;5034582;28;20050;-77
2021/06/25 03:54:03;;;;;;;56.35;41.50;;;;;;;13.51;90.34;100421.28;5019122;28;20443;-76
2021/06/25 03:56:30;;;;;;;53.05;39.75;;;;;;;13.52;90.41;100422.16;5019121;28;20435;-77
2021/06/25 03:58:57;;;;;;;54.55;40.10;;;;;;;13.49;90.78;100417.00;5018885;28;20359;-76
2021/06/25 04:01:24;;;;;;;56.83;41.92;;;;;;;13.48;90.73;100417.97;5018719;28;20096;-77
2021/06/25 04:03:51;;;;;;;60.08;42.40;;;;;;;13.53;90.74;100418.53;5033545;28;20058;-77
2021/06/25 04:06:18;;;;;;;55.33;40.83;;;;;;;13.65;90.60;100420.34;5018243;28;20061;-76
2021/06/25 04:08:48;;;;;;;55.40;39.70;;;;;;;13.60;90.67;100410.88;5019165;28;20054;-76
2021/06/25 04:11:17;;;;;;;54.30;39.72;;;;;;;13.60;91.05;100409.06;5017353;28;20467;-76
2021/06/25 04:13:44;;;;;;;53.85;41.15;;;;;;;13.60;91.15;100400.16;5018600;28;20092;-77
2021/06/25 04:16:11;;;;;;;54.05;40.08;;;;;;;13.61;91.25;100405.44;5018190;28;20054;-77
2021/06/25 04:18:37;;;;;;;56.00;41.80;;;;;;;13.62;91.31;100400.94;5018781;28;20414;-77
2021/06/25 04:21:04;;;;;;;56.85;41.75;;;;;;;13.64;91.33;100409.72;5034520;28;20049;-76
2021/06/25 04:23:31;;;;;;;59.67;42.83;;;;;;;13.73;91.26;100409.06;5037804;28;20493;-76
2021/06/25 04:25:59;;;;;;;56.05;41.03;;;;;;;13.79;91.18;100413.16;5038182;28;20049;-76
2021/06/25 04:28:26;;;;;;;60.63;40.50;;;;;;;13.88;91.08;100411.66;5037728;28;20064;-78
2021/06/25 04:30:53;;;;;;;52.72;40.22;;;;;;;13.82;90.89;100405.75;5037423;28;20049;-78
2021/06/25 04:33:21;;;;;;;61.67;42.65;;;;;;;13.88;91.02;100408.97;5036408;28;20049;-78
2021/06/25 04:35:50;;;;;;;56.85;41.72;;;;;;;13.85;90.89;100402.00;5037631;28;20057;-77
2021/06/25 04:38:16;;;;;;;58.20;42.80;;;;;;;13.87;91.24;100417.97;5037352;28;20053;-78
2021/06/25 04:40:43;;;;;;;56.60;42.10;;;;;;;13.97;90.95;100419.91;5036248;28;20050;-77
2021/06/25 04:43:12;;;;;;;55.63;41.55;;;;;;;13.98;90.97;100421.63;5037487;28;20512;-76
2021/06/25 04:45:40;;;;;;;57.33;42.88;;;;;;;14.02;90.91;100414.19;5037281;28;20057;-77
2021/06/25 04:48:10;;;;;;;60.50;43.47;;;;;;;14.04;91.08;100406.88;5037112;28;20469;-77
2021/06/25 04:50:37;;;;;;;54.77;43.50;;;;;;;14.09;90.53;100399.38;5036841;28;20048;-77
2021/06/25 04:53:04;;;;;;;51.90;41.97;;;;;;;14.17;90.52;100406.84;5035817;28;20053;-77
2021/06/25 04:55:40;;;;;;;57.30;42.15;;;;;;;14.15;90.58;100395.38;5035288;28;20057;-77
2021/06/25 04:58:10;;;;;;;57.97;42.45;;;;;;;14.25;90.56;100395.56;5036995;28;20046;-77
2021/06/25 05:00:38;;;;;;;55.47;42.50;;;;;;;14.28;90.22;100394.50;5036484;28;20045;-77
2021/06/25 05:03:06;;;;;;;52.05;39.65;;;;;;;14.32;89.81;100394.16;5035282;28;20147;-77
2021/06/25 05:05:34;;;;;;;53.63;41.53;;;;;;;14.30;90.14;100384.50;5036755;28;20046;-77
2021/06/25 05:08:01;;;;;;;55.25;39.30;;;;;;;14.39;89.49;100395.41;5036809;28;20057;-77
2021/06/25 05:10:29;;;;;;;54.47;39.40;;;;;;;14.43;88.38;100396.03;5036327;28;20187;-79
2021/06/25 05:12:57;;;;;;;50.60;39.30;;;;;;;14.48;88.33;100395.69;5037795;28;20471;-81
2021/06/25 05:15:25;;;;;;;50.97;39.40;;;;;;;14.50;88.35;100401.84;5028321;28;20080;-85
2021/06/25 05:17:52;;;;;;;49.25;38.03;;;;;;;14.53;88.47;100401.59;5024960;28;20131;-78
2021/06/25 05:20:39;;;;;;;54.55;39.00;;;;;;;14.53;87.73;100388.16;5022841;28;20112;-76
2021/06/25 05:23:06;;;;;;;46.72;36.22;;;;;;;14.41;87.30;100365.78;5024320;28;20049;-78
2021/06/25 05:25:32;;;;;;;49.65;39.08;;;;;;;14.62;87.27;100384.81;5039128;28;20049;-75
2021/06/25 05:27:59;;;;;;;51.97;36.80;;;;;;;14.66;86.95;100380.06;5024014;28;20097;-76
2021/06/25 05:30:27;;;;;;;48.25;37.80;;;;;;;14.72;86.49;100384.97;5025031;28;20128;-75
2021/06/25 05:32:54;;;;;;;56.53;37.22;;;;;;;14.74;86.55;100384.88;5024735;28;20460;-75
2021/06/25 05:35:21;;;;;;;50.63;35.88;;;;;;;14.79;86.74;100390.78;5022553;28;20049;-77
2021/06/25 05:37:48;;;;;;;46.88;34.50;;;;;;;14.86;85.68;100388.50;5026569;28;20054;-75
2021/06/25 05:40:15;;;;;;;46.75;35.42;;;;;;;14.84;85.91;100393.09;5024359;28;20042;-77
2021/06/25 05:42:42;;;;;;;43.47;35.22;;;;;;;14.82;84.74;100382.47;5025815;28;20136;-76
2021/06/25 05:45:09;;;;;;;48.70;35.25;;;;;;;14.81;84.40;100396.88;5026122;28;20128;-75
2021/06/25 05:47:36;;;;;;;45.75;35.40;;;;;;;14.75;84.89;100392.81;5024731;28;20049;-74
2021/06/25 05:50:03;;;;;;;46.60;34.75;;;;;;;14.82;84.98;100395.06;5029549;28;20703;-74
2021/06/25 05:52:29;;;;;;;46.70;35.40;;;;;;;14.85;83.95;100392.13;5027468;28;20054;-75
2021/06/25 05:54:56;;;;;;;46.58;33.97;;;;;;;14.84;83.52;100398.47;5025719;28;20054;-79
2021/06/25 05:57:23;;;;;;;45.53;33.20;;;;;;;14.84;84.14;100395.78;5026342;28;20053;-78
2021/06/25 05:59:49;;;;;;;45.35;33.45;;;;;;;14.90;84.14;100395.31;5025915;28;20061;-79
2021/06/25 06:02:16;;;;;;;42.72;32.50;;;;;;;14.90;83.63;100398.00;5024578;28;20046;-77
2021/06/25 06:04:43;;;;;;;42.83;33.78;;;;;;;15.00;83.90;100393.66;5024998;28;20081;-78
2021/06/25 06:07:10;;;;;;;45.63;32.85;;;;;;;15.01;83.09;100390.00;5023507;28;20091;-77
2021/06/25 06:09:37;;;;;;;42.90;32.40;;;;;;;15.12;83.25;100393.69;5026687;28;20061;-76
2021/06/25 06:12:04;;;;;;;39.47;32.70;;;;;;;15.23;83.23;100384.78;5023483;28;20054;-76
2021/06/25 06:14:31;;;;;;;44.85;32.42;;;;;;;15.20;82.52;100381.38;5016405;28;20105;-77
2021/06/25 06:16:59;;;;;;;40.78;30.70;;;;;;;15.28;80.47;100393.38;5016064;28;20443;-77
2021/06/25 06:19:37;;;;;;;46.25;30.80;;;;;;;15.20;80.79;100375.16;5019174;28;20049;-77
2021/06/25 06:33:14;;;;;;;37.03;28.52;;;;;;;15.65;77.83;100392.31;5035498;28;20061;-77
2021/06/25 06:35:41;;;;;;;41.90;29.23;;;;;;;15.71;78.04;100386.47;5039472;28;20343;-77
2021/06/25 06:38:07;;;;;;;39.67;30.00;;;;;;;15.83;77.53;100395.38;5041704;28;20167;-77
2021/06/25 06:40:35;;;;;;;41.45;29.95;;;;;;;15.85;76.91;100386.22;5041753;28;20046;-77
2021/06/25 06:43:02;;;;;;;37.35;27.23;;;;;;;15.77;76.32;100402.13;5041759;28;20053;-77
2021/06/25 06:45:29;;;;;;;33.55;24.90;;;;;;;15.80;74.64;100396.47;5041947;28;20053;-77
2021/06/25 06:47:56;;;;;;;33.25;23.88;;;;;;;15.75;73.78;100390.63;5041890;28;20056;-77
2021/06/25 06:50:22;;;;;;;28.92;22.42;;;;;;;15.82;72.47;100389.16;5041496;28;20561;-77
2021/06/25 06:52:50;;;;;;;29.52;21.50;;;;;;;15.95;73.03;100404.38;5024117;28;20103;-77
2021/06/25 06:55:22;;;;;;;26.60;21.65;;;;;;;15.94;73.04;100394.56;5041608;28;20053;-77
2021/06/25 06:57:49;;;;;;;30.17;21.35;;;;;;;15.98;70.23;100387.97;5041431;28;20447;-77
2021/06/25 07:00:17;;;;;;;27.77;18.52;;;;;;;16.05;69.42;100391.00;5041424;28;20390;-77
2021/06/25 07:02:46;;;;;;;25.33;19.13;;;;;;;15.98;69.65;100374.50;5041529;28;20076;-76
2021/06/25 07:05:15;;;;;;;24.20;18.48;;;;;;;16.31;68.57;100399.69;5041586;28;20053;-77
2021/06/25 07:07:42;;;;;;;23.70;17.90;;;;;;;16.31;68.87;100391.59;5041680;28;20045;-77
2021/06/25 07:10:11;;;;;;;24.83;18.23;;;;;;;16.43;68.84;100398.69;5041715;28;20061;-77
2021/06/25 07:12:39;;;;;;;25.80;18.35;;;;;;;16.48;69.74;100397.41;5041731;28;20053;-78
2021/06/25 07:15:07;;;;;;;25.00;17.67;;;;;;;16.62;68.72;100405.22;5041509;28;20103;-77
2021/06/25 07:17:34;;;;;;;22.40;17.13;;;;;;;16.60;68.79;100391.03;5041452;28;20053;-77
2021/06/25 07:20:04;;;;;;;25.77;17.65;;;;;;;16.65;67.00;100396.91;5036813;28;20061;-77
2021/06/25 07:22:30;;;;;;;23.65;17.35;;;;;;;16.59;67.01;100381.22;5020976;28;20082;-77
2021/06/25 07:24:57;;;;;;;27.45;16.38;;;;;;;16.67;65.58;100397.63;5023834;28;20054;-78
2021/06/25 07:27:24;;;;;;;23.75;16.13;;;;;;;16.77;64.80;100400.41;5020874;28;20348;-77
2021/06/25 07:29:50;;;;;;;20.40;14.70;;;;;;;16.78;65.27;100401.25;5021809;28;20050;-77
2021/06/25 07:32:17;;;;;;;21.38;15.00;;;;;;;16.83;65.63;100404.41;5021470;28;20108;-77
2021/06/25 07:34:44;;;;;;;22.15;16.20;;;;;;;16.85;65.32;100394.38;5021433;28;20054;-77
2021/06/25 07:37:11;;;;;;;20.35;15.13;;;;;;;16.97;63.70;100400.56;5021245;28;20049;-77
2021/06/25 07:39:39;;;;;;;18.85;15.00;;;;;;;16.99;64.98;100382.41;5022671;28;20396;-78
2021/06/25 07:42:06;;;;;;;20.05;12.75;;;;;;;17.01;61.50;100387.69;5021294;28;20428;-77
2021/06/25 07:44:33;;;;;;;20.30;14.10;;;;;;;17.07;60.56;100388.06;5021222;28;20092;-77
2021/06/25 07:47:00;;;;;;;18.40;12.10;;;;;;;17.20;61.11;100393.25;5019068;28;20058;-77
2021/06/25 07:49:26;;;;;;;18.35;13.45;;;;;;;17.25;59.58;100392.84;5034029;28;20053;-77
2021/06/25 07:51:53;;;;;;;19.65;13.23;;;;;;;17.33;60.10;100393.03;5018339;28;20046;-78
2021/06/25 07:54:20;;;;;;;18.48;11.80;;;;;;;17.30;57.87;100392.44;5018397;28;20062;-78
2021/06/25 07:56:48;;;;;;;20.85;12.73;;;;;;;17.35;57.96;100392.91;5018793;28;20077;-77
2021/06/25 07:59:15;;;;;;;16.05;11.50;;;;;;;17.47;57.61;100401.78;5017358;28;20443;-78
2021/06/25 08:01:42;;;;;;;12.57;10.50;;;;;;;17.49;56.53;100381.78;5018273;28;20502;-77
2021/06/25 08:04:09;;;;;;;15.25;10.20;;;;;;;17.69;56.98;100406.16;5033327;28;20421;-77
2021/06/25 08:06:36;;;;;;;14.85;10.18;;;;;;;17.74;58.06;100398.53;5017553;28;20085;-78
2021/06/25 08:09:03;;;;;;;14.40;10.63;;;;;;;17.85;54.09;100402.13;5017888;28;20084;-77
2021/06/25 08:11:31;;;;;;;14.02;10.13;;;;;;;17.82;54.72;100381.63;5018488;28;20415;-77
2021/06/25 08:13:58;;;;;;;17.00;10.15;;;;;;;17.88;53.81;100389.19;5017407;28;20056;-77
2021/06/25 08:16:24;;;;;;;12.38;9.43;;;;;;;17.84;53.76;100393.19;5021385;28;20053;-77
2021/06/25 08:18:57;;;;;;;13.32;9.75;;;;;;;17.73;53.88;100385.16;5021523;28;20049;-78
2021/06/25 08:21:29;;;;;;;16.80;9.80;;;;;;;17.79;54.99;100376.53;5020482;28;20058;-78
2021/06/25 08:23:56;;;;;;;14.30;10.52;;;;;;;17.92;54.33;100387.09;5034976;28;20056;-77
2021/06/25 08:26:23;;;;;;;16.63;10.35;;;;;;;17.84;55.00;100386.91;5031127;28;20049;-77
2021/06/25 08:28:50;;;;;;;15.38;9.70;;;;;;;17.76;55.73;100391.16;5029142;28;20050;-79
2021/06/25 08:31:17;;;;;;;21.27;9.73;;;;;;;17.72;55.68;100388.84;5035356;28;20046;-77
2021/06/25 08:33:44;;;;;;;16.33;10.25;;;;;;;17.64;55.63;100365.22;5026777;28;20088;-78
2021/06/25 08:36:11;;;;;;;14.00;10.40;;;;;;;17.78;55.26;100389.16;5018783;28;20104;-79
2021/06/25 08:38:38;;;;;;;16.00;9.65;;;;;;;17.78;56.34;100378.34;5017033;28;20108;-77
2021/06/25 08:41:06;;;;;;;17.27;9.75;;;;;;;17.94;55.48;100382.41;5017903;28;20424;-78
2021/06/25 08:43:32;;;;;;;15.90;10.35;;;;;;;18.09;54.60;100379.38;5017765;28;20149;-78
2021/06/25 08:46:00;;;;;;;13.07;9.25;;;;;;;18.03;53.18;100378.88;5032763;28;20646;-78
2021/06/25 08:48:28;;;;;;;14.20;10.95;;;;;;;18.02;54.30;100376.31;5017421;28;20092;-78
2021/06/25 08:50:58;;;;;;;13.90;9.73;;;;;;;18.07;55.27;100379.50;5016384;28;20092;-78
2021/06/25 08:53:25;;;;;;;16.48;10.23;;;;;;;18.25;54.61;100374.28;5017278;28;20054;-78
2021/06/25 08:55:52;;;;;;;17.35;10.60;;;;;;;18.15;54.57;100376.97;5017230;28;20096;-77
2021/06/25 08:58:21;;;;;;;15.45;10.27;;;;;;;18.27;54.66;100366.03;5016591;28;20443;-78
2021/06/25 09:00:48;;;;;;;14.05;10.75;;;;;;;18.21;53.77;100351.25;5016762;28;20050;-77
2021/06/25 09:03:26;;;;;;;16.52;10.75;;;;;;;18.39;54.85;100374.88;5017124;28;20439;-77
2021/06/25 09:06:07;;;;;;;15.40;11.02;;;;;;;18.50;54.51;100363.94;5016739;28;20062;-77
2021/06/25 09:08:34;;;;;;;;;;;;;;;18.77;55.62;100381.34;5017266;28;20053;-78
2021/06/25 09:11:19;;;;;;;13.68;10.80;;;;;;;18.80;55.19;100375.63;5016488;28;19926;-77
2021/06/25 09:13:46;;;;;;;14.18;10.60;;;;;;;18.87;55.87;100371.34;5016858;28;20054;-77
2021/06/25 09:16:27;;;;;;;16.30;11.82;;;;;;;18.86;53.64;100366.09;5016696;28;20053;-78
2021/06/25 09:19:14;;;;;;;17.08;10.82;;;;;;;19.06;54.47;100366.13;5017079;28;20084;-77
2021/06/25 09:21:43;;;;;;;16.88;11.07;;;;;;;19.06;53.32;100366.97;5016962;28;20041;-79
2021/06/25 09:24:25;;;;;;;17.48;11.27;;;;;;;19.18;53.56;100364.09;5016497;28;20058;-77
2021/06/25 09:27:05;;;;;;;18.00;11.43;;;;;;;19.14;52.80;100348.16;5016400;28;20057;-77
2021/06/25 09:29:39;;;;;;;14.23;10.95;;;;;;;19.24;53.67;100358.13;5015471;28;20054;-77
2021/06/25 09:32:11;;;;;;;17.98;10.57;;;;;;;19.29;54.45;100338.72;5016712;28;20328;-78
2021/06/25 09:34:39;;;;;;;16.85;10.05;;;;;;;19.56;54.83;100353.31;5018300;28;20046;-78
2021/06/25 09:37:09;;;;;;;16.35;10.52;;;;;;;19.56;54.57;100356.91;5016772;28;20060;-77
2021/06/25 09:39:41;;;;;;;;;;;;;;;19.61;52.49;100360.00;5015893;28;20053;-77
2021/06/25 09:42:21;;;;;;;18.65;11.15;;;;;;;19.73;52.43;100365.22;5016167;28;19921;-77
2021/06/25 09:45:04;;;;;;;;;;;;;;;19.72;52.27;100366.25;5016683;28;20061;-78
2021/06/25 09:47:53;;;;;;;15.77;9.43;;;;;;;19.66;51.96;100356.84;5017083;28;19922;-78
2021/06/25 09:50:22;;;;;;;17.73;9.77;;;;;;;19.75;52.66;100355.97;5016055;28;20104;-77
2021/06/25 09:53:18;;;;;;;14.27;10.38;;;;;;;19.93;51.69;100353.31;5016343;28;20050;-77
2021/06/25 09:55:54;;;;;;;14.68;10.73;;;;;;;19.92;51.10;100326.38;5019885;28;20498;-77
2021/06/25 10:01:24;;;;;;;16.75;11.38;;;;;;;20.18;50.44;100350.94;5017030;28;20057;-77
2021/06/25 10:03:58;;;;;;;19.02;11.27;;;;;;;20.04;50.63;100355.00;5016390;28;20054;-77
2021/06/25 10:06:30;;;;;;;15.07;11.20;;;;;;;19.91;50.79;100325.53;5016353;28;20061;-77
2021/06/25 10:08:58;;;;;;;18.50;11.32;;;;;;;20.21;51.61;100344.34;5014092;28;20108;-77
2021/06/25 10:11:31;;;;;;;17.17;10.70;;;;;;;20.42;51.54;100344.06;5015214;28;20060;-78
2021/06/25 10:14:00;;;;;;;17.00;11.10;;;;;;;20.17;49.52;100345.66;5015772;28;20082;-77
2021/06/25 10:16:27;;;;;;;14.30;10.55;;;;;;;20.20;50.40;100346.19;5015607;28;20447;-77
2021/06/25 10:18:57;;;;;;;14.25;10.23;;;;;;;20.39;49.73;100341.66;5015843;28;20057;-79
2021/06/25 10:21:31;;;;;;;14.63;10.15;;;;;;;20.16;50.15;100346.66;5015325;28;20435;-78
2021/06/25 10:24:03;;;;;;;15.57;11.88;;;;;;;20.10;51.32;100337.25;5015521;28;20053;-79
2021/06/25 10:26:32;;;;;;;19.25;10.88;;;;;;;20.25;50.23;100332.19;5014616;28;20058;-78
2021/06/25 10:28:59;;;;;;;13.48;9.75;;;;;;;20.52;50.76;100333.13;5015692;28;20080;-77
2021/06/25 10:31:25;;;;;;;12.82;9.52;;;;;;;20.81;50.77;100344.75;5015607;28;20050;-78
2021/06/25 10:33:54;;;;;;;13.25;11.00;;;;;;;20.77;48.93;100334.19;5015381;28;20050;-78
2021/06/25 10:36:26;;;;;;;14.13;10.32;;;;;;;20.84;50.01;100336.31;5015841;28;20058;-77
2021/06/25 10:38:54;;;;;;;12.55;9.90;;;;;;;20.89;49.29;100329.44;5015697;28;20125;-77
2021/06/25 10:41:23;;;;;;;14.90;10.13;;;;;;;21.12;49.71;100330.78;5015609;28;20054;-77
2021/06/25 10:43:53;;;;;;;17.75;10.65;;;;;;;21.40;47.91;100330.59;5015903;28;20049;-77
2021/06/25 10:46:29;;;;;;;15.85;10.07;;;;;;;21.57;47.85;100334.25;5015827;28;20061;-76
2021/06/25 10:48:58;;;;;;;11.07;8.52;;;;;;;21.79;47.81;100332.88;5014267;28;20100;-76
2021/06/25 10:51:32;;;;;;;14.15;9.60;;;;;;;21.82;47.31;100338.00;5020564;28;20042;-78
2021/06/25 10:54:22;;;;;;;15.50;8.40;;;;;;;21.87;46.89;100323.06;5020886;28;20062;-78
2021/06/25 10:56:48;;;;;;;16.42;10.10;;;;;;;21.78;49.84;100342.03;5016738;28;20112;-78
2021/06/25 10:59:26;;;;;;;15.85;9.65;;;;;;;21.56;46.93;100341.56;5017597;28;20060;-76
2021/06/25 11:02:03;;;;;;;11.20;8.90;;;;;;;21.65;48.69;100339.75;5016808;28;20100;-77
2021/06/25 11:04:30;;;;;;;15.02;9.20;;;;;;;21.78;49.17;100331.19;5015715;28;20088;-77
2021/06/25 11:06:58;;;;;;;12.45;8.50;;;;;;;21.73;48.71;100325.38;5014588;28;20107;-79
2021/06/25 11:09:28;;;;;;;15.50;10.02;;;;;;;21.53;47.32;100331.03;5015290;28;20061;-82
2021/06/25 11:12:14;;;;;;;;;;;;;;;21.53;47.81;100324.75;5015715;28;20049;-79
2021/06/25 11:14:40;;;;;;;12.65;9.68;;;;;;;21.70;46.81;100320.28;5015879;28;19925;-78
2021/06/25 11:17:07;;;;;;;11.48;8.82;;;;;;;21.77;47.85;100301.44;5012708;28;20053;-78
2021/06/25 11:19:36;;;;;;;13.00;9.23;;;;;;;21.91;47.42;100310.84;5013325;28;20061;-78
2021/06/25 11:22:23;;;;;;;14.85;9.43;;;;;;;21.84;47.77;100303.34;5017038;28;20057;-78
2021/06/25 11:24:54;;;;;;;14.20;10.07;;;;;;;21.52;47.51;100317.63;5018736;28;20046;-78
2021/06/25 11:27:20;;;;;;;14.10;9.55;;;;;;;21.94;47.72;100319.53;5033941;28;20395;-78
2021/06/25 11:29:50;;;;;;;16.77;9.27;;;;;;;22.28;46.36;100323.16;5017620;28;20050;-79
2021/06/25 11:32:28;;;;;;;15.17;9.00;;;;;;;22.37;46.87;100322.19;5018864;28;20054;-79